Time;durP1;ratioP1;P1;durP2;ratioP2;P2;SDS_P1;SDS_P2;PMS_P1;PMS_P2;Temp;Humidity;BMP_temperature;BMP_pressure;BME280_temperature;BME280_humidity;BME280_pressure;Samples;Min_cycle;Max_cycle;Signal;HPM_P1;HPM_P2
2023/04/14 00:01:15;;;;;;;;;;;19.80;34.20;;;;;;8400785;28;19997;-45
2023/04/14 00:05:16;;;;;;;;;;;19.80;34.20;;;;;;8400848;28;19966;-45
2023/04/14 00:09:16;;;;;;;;;;;19.80;34.30;;;;;;8400111;28;20374;-45
2023/04/14 00:13:16;;;;;;;;;;;19.70;34.20;;;;;;8400643;28;19928;-44
2023/04/14 00:17:17;;;;;;;;;;;19.70;34.30;;;;;;8400585;28;19919;-45
2023/04/14 00:21:17;;;;;;;;;;;19.70;34.30;;;;;;8399739;28;19916;-44
2023/04/14 00:25:18;;;;;;;;;;;19.70;34.30;;;;;;8400283;28;19916;-45
2023/04/14 00:29:18;;;;;;;;;;;19.70;34.20;;;;;;8399890;28;19928;-45
2023/04/14 00:33:18;;;;;;;;;;;19.70;34.20;;;;;;8399275;28;19950;-44
2023/04/14 00:37:19;;;;;;;;;;;19.60;34.20;;;;;;8398604;28;19965;-45
2023/04/14 00:41:19;;;;;;;;;;;19.60;34.20;;;;;;8399627;28;19921;-44
2023/04/14 00:45:20;;;;;;;;;;;19.60;34.20;;;;;;8398968;28;20397;-44
2023/04/14 00:49:20;;;;;;;;;;;19.60;34.20;;;;;;8399380;28;19916;-44
2023/04/14 00:53:21;;;;;;;;;;;19.60;34.80;;;;;;8399472;28;19928;-45
2023/04/14 00:57:21;;;;;;;;;;;19.60;34.30;;;;;;8397907;28;19917;-44
2023/04/14 01:01:22;;;;;;;;;;;19.60;34.30;;;;;;8393774;28;19916;-46
2023/04/14 01:05:22;;;;;;;;;;;19.60;34.30;;;;;;8381049;28;20329;-45
2023/04/14 01:09:24;;;;;;;;;;;19.50;34.20;;;;;;8398217;28;19916;-45
2023/04/14 01:13:43;;;;;;;;;;;19.50;34.20;;;;;;8398968;28;19990;-45
2023/04/14 01:17:48;;;;;;;;;;;19.60;34.30;;;;;;8398285;28;20391;-44
2023/04/14 01:21:50;;;;;;;;;;;19.50;34.20;;;;;;8398562;28;20266;-44
2023/04/14 01:25:50;;;;;;;;;;;19.50;34.20;;;;;;8398269;28;19916;-45
2023/04/14 01:29:51;;;;;;;;;;;19.50;34.20;;;;;;8397691;28;19925;-44
2023/04/14 01:33:55;;;;;;;;;;;19.50;34.80;;;;;;8397812;28;20047;-44
2023/04/14 01:38:00;;;;;;;;;;;19.50;34.20;;;;;;8398007;28;20410;-45
2023/04/14 01:42:03;;;;;;;;;;;19.40;34.20;;;;;;8397163;28;19916;-44
2023/04/14 01:46:05;;;;;;;;;;;19.40;34.20;;;;;;8397472;28;19916;-45
2023/04/14 01:50:07;;;;;;;;;;;19.40;34.30;;;;;;8397585;28;20454;-44
2023/04/14 01:54:08;;;;;;;;;;;19.40;34.20;;;;;;8396658;28;20011;-46
2023/04/14 01:58:09;;;;;;;;;;;19.40;34.20;;;;;;8397435;28;19913;-45
2023/04/14 02:02:11;;;;;;;;;;;19.40;34.20;;;;;;8396963;28;19920;-45
2023/04/14 02:06:12;;;;;;;;;;;19.40;34.30;;;;;;8396353;28;19959;-45
2023/04/14 02:10:14;;;;;;;;;;;19.40;34.30;;;;;;8396756;28;19939;-45
2023/04/14 02:14:16;;;;;;;;;;;19.40;34.30;;;;;;8396363;28;19924;-44
2023/04/14 02:18:18;;;;;;;;;;;19.40;34.30;;;;;;8396105;28;19919;-45
2023/04/14 02:22:18;;;;;;;;;;;19.40;34.30;;;;;;8396429;28;19962;-44
2023/04/14 02:26:21;;;;;;;;;;;19.30;34.30;;;;;;8396284;28;20011;-45
2023/04/14 02:30:23;;;;;;;;;;;19.30;34.30;;;;;;8395798;28;19928;-45
2023/04/14 02:34:25;;;;;;;;;;;19.30;34.30;;;;;;8395931;28;19977;-45
2023/04/14 02:38:25;;;;;;;;;;;19.30;34.30;;;;;;8396642;28;19912;-45
2023/04/14 02:42:26;;;;;;;;;;;19.30;34.30;;;;;;8395712;28;19917;-45
2023/04/14 02:46:28;;;;;;;;;;;19.30;34.30;;;;;;8396194;28;19995;-45
2023/04/14 02:50:29;;;;;;;;;;;19.30;34.30;;;;;;8396159;28;19917;-45
2023/04/14 02:54:33;;;;;;;;;;;19.30;34.30;;;;;;8395455;28;19967;-45
2023/04/14 02:58:34;;;;;;;;;;;19.20;34.30;;;;;;8396219;28;19955;-45
2023/04/14 03:02:35;;;;;;;;;;;19.20;34.30;;;;;;8395494;28;19920;-45
2023/04/14 03:06:37;;;;;;;;;;;19.20;34.30;;;;;;8395828;28;20336;-45
2023/04/14 03:10:38;;;;;;;;;;;19.20;34.50;;;;;;8395770;28;19923;-46
2023/04/14 03:14:39;;;;;;;;;;;19.20;34.30;;;;;;8394867;28;19927;-46
2023/04/14 03:18:40;;;;;;;;;;;19.20;34.30;;;;;;8397837;28;19995;-44
2023/04/14 03:22:42;;;;;;;;;;;19.20;34.30;;;;;;8402078;28;19954;-45
2023/04/14 03:26:44;;;;;;;;;;;19.20;34.30;;;;;;8401384;28;19965;-45
2023/04/14 03:30:46;;;;;;;;;;;19.20;34.30;;;;;;8401672;28;20344;-46
2023/04/14 03:34:48;;;;;;;;;;;19.20;34.20;;;;;;8401542;28;20357;-45
2023/04/14 03:38:50;;;;;;;;;;;19.20;34.20;;;;;;8401314;28;19912;-45
2023/04/14 03:42:50;;;;;;;;;;;19.20;34.20;;;;;;8401335;28;19917;-45
2023/04/14 03:46:53;;;;;;;;;;;19.20;34.20;;;;;;8401171;28;20116;-45
2023/04/14 03:50:53;;;;;;;;;;;19.30;34.20;;;;;;8400366;28;19994;-45
2023/04/14 03:54:58;;;;;;;;;;;19.20;34.20;;;;;;8400616;28;20282;-44
2023/04/14 03:58:59;;;;;;;;;;;19.20;34.20;;;;;;8400892;28;19913;-45
2023/04/14 04:03:00;;;;;;;;;;;19.20;34.20;;;;;;8400438;28;19927;-45
2023/04/14 04:07:01;;;;;;;;;;;19.20;34.20;;;;;;8400556;28;19916;-45
2023/04/14 04:11:04;;;;;;;;;;;19.20;34.20;;;;;;8393296;28;19924;-45
2023/04/14 04:15:05;;;;;;;;;;;19.30;34.10;;;;;;8399622;28;20293;-45
2023/04/14 04:19:06;;;;;;;;;;;19.40;34.00;;;;;;8400727;28;19913;-46
2023/04/14 04:23:07;;;;;;;;;;;19.50;34.00;;;;;;8400459;28;19916;-44
2023/04/14 04:27:08;;;;;;;;;;;19.60;34.00;;;;;;8399641;28;19923;-46
2023/04/14 04:31:09;;;;;;;;;;;19.70;33.90;;;;;;8398835;28;19928;-45
2023/04/14 04:35:10;;;;;;;;;;;19.80;33.90;;;;;;8399924;28;20369;-44
2023/04/14 04:39:11;;;;;;;;;;;19.90;33.90;;;;;;8399346;28;19920;-45
2023/04/14 04:43:11;;;;;;;;;;;19.90;33.80;;;;;;8399902;28;20377;-44
2023/04/14 04:47:12;;;;;;;;;;;20.00;33.80;;;;;;8399527;28;19936;-46
2023/04/14 04:51:12;;;;;;;;;;;20.10;33.80;;;;;;8398653;28;19931;-45
2023/04/14 04:55:13;;;;;;;;;;;20.10;33.70;;;;;;8399162;28;20305;-45
2023/04/14 04:59:13;;;;;;;;;;;20.10;33.70;;;;;;8399315;28;19924;-46
2023/04/14 05:03:14;;;;;;;;;;;20.20;33.70;;;;;;8398549;28;19920;-46
2023/04/14 05:07:14;;;;;;;;;;;20.20;33.70;;;;;;8398888;28;20443;-45
2023/04/14 05:11:15;;;;;;;;;;;20.20;33.70;;;;;;8398526;28;19921;-44
2023/04/14 05:15:15;;;;;;;;;;;20.20;33.70;;;;;;8398130;28;19999;-45
2023/04/14 05:19:16;;;;;;;;;;;20.20;33.70;;;;;;8398695;28;19917;-45
2023/04/14 05:23:16;;;;;;;;;;;20.20;33.80;;;;;;8398163;28;19917;-45
2023/04/14 05:27:17;;;;;;;;;;;20.10;33.70;;;;;;8397471;28;20334;-45
2023/04/14 05:31:17;;;;;;;;;;;20.10;33.70;;;;;;8397736;28;19921;-47
2023/04/14 05:35:17;;;;;;;;;;;20.10;33.70;;;;;;8397694;28;20012;-44
2023/04/14 05:39:18;;;;;;;;;;;20.00;33.70;;;;;;8397289;28;20360;-48
2023/04/14 05:43:18;;;;;;;;;;;20.00;33.70;;;;;;8397297;28;20319;-45
2023/04/14 05:47:19;;;;;;;;;;;20.00;33.90;;;;;;8397336;28;19924;-45
2023/04/14 05:51:19;;;;;;;;;;;20.00;33.80;;;;;;8396637;28;19956;-45
2023/04/14 05:55:20;;;;;;;;;;;19.90;33.70;;;;;;8397137;28;20008;-46
2023/04/14 05:59:20;;;;;;;;;;;19.90;33.80;;;;;;8397313;28;19917;-49
2023/04/14 06:03:21;;;;;;;;;;;20.00;33.90;;;;;;8396268;28;19950;-45
2023/04/14 06:07:21;;;;;;;;;;;20.00;33.80;;;;;;8396861;28;19921;-46
2023/04/14 06:11:22;;;;;;;;;;;20.10;33.80;;;;;;8396799;28;20019;-46
2023/04/14 06:15:25;;;;;;;;;;;20.10;33.70;;;;;;8396816;28;19916;-45
2023/04/14 06:19:26;;;;;;;;;;;20.20;33.70;;;;;;8396700;28;20430;-46
2023/04/14 06:23:26;;;;;;;;;;;20.20;33.60;;;;;;8396559;28;20007;-45
2023/04/14 06:27:27;;;;;;;;;;;20.20;33.60;;;;;;8395985;28;19917;-47
2023/04/14 06:31:27;;;;;;;;;;;20.30;33.60;;;;;;8396530;28;19966;-44
2023/04/14 06:35:29;;;;;;;;;;;20.30;33.60;;;;;;8396440;28;20365;-46
2023/04/14 06:39:29;;;;;;;;;;;20.40;33.70;;;;;;8395611;28;19931;-46
2023/04/14 06:43:29;;;;;;;;;;;20.40;33.60;;;;;;8396228;28;20266;-47
2023/04/14 06:47:30;;;;;;;;;;;20.40;33.60;;;;;;8396301;28;19912;-46
2023/04/14 06:51:31;;;;;;;;;;;20.40;33.60;;;;;;8395991;28;19999;-46
2023/04/14 06:55:34;;;;;;;;;;;20.30;33.60;;;;;;8401291;28;20409;-49
2023/04/14 06:59:34;;;;;;;;;;;20.30;33.60;;;;;;8402280;28;19997;-45
2023/04/14 07:03:35;;;;;;;;;;;20.30;33.60;;;;;;8401203;28;19928;-46
2023/04/14 07:07:36;;;;;;;;;;;20.20;33.60;;;;;;8402564;28;19912;-46
2023/04/14 07:11:36;;;;;;;;;;;20.20;33.60;;;;;;8401947;28;20362;-46
2023/04/14 07:15:37;;;;;;;;;;;20.20;33.70;;;;;;8402766;28;19923;-45
2023/04/14 07:19:37;;;;;;;;;;;20.20;33.70;;;;;;8402401;28;19970;-45
2023/04/14 07:23:38;;;;;;;;;;;20.20;33.70;;;;;;8401727;28;19922;-46
2023/04/14 07:27:39;;;;;;;;;;;20.20;33.70;;;;;;8401869;28;19948;-44
2023/04/14 07:31:40;;;;;;;;;;;20.10;33.70;;;;;;8401537;28;19978;-47
2023/04/14 07:35:40;;;;;;;;;;;20.10;33.70;;;;;;8401406;28;19913;-45
2023/04/14 07:39:41;;;;;;;;;;;20.10;33.70;;;;;;8401739;28;19920;-46
2023/04/14 07:43:42;;;;;;;;;;;20.20;33.60;;;;;;8401228;28;19973;-46
2023/04/14 07:47:42;;;;;;;;;;;20.20;33.60;;;;;;8400822;28;20385;-46
2023/04/14 07:51:42;;;;;;;;;;;20.20;34.10;;;;;;8400931;28;20011;-47
2023/04/14 07:55:43;;;;;;;;;;;20.20;33.60;;;;;;8401132;28;20336;-46
2023/04/14 07:59:43;;;;;;;;;;;20.20;34.10;;;;;;8400379;28;19958;-46
2023/04/14 08:03:44;;;;;;;;;;;20.20;33.50;;;;;;8400836;28;19924;-46
2023/04/14 08:07:45;;;;;;;;;;;20.20;33.60;;;;;;8400684;28;19920;-49
2023/04/14 08:11:45;;;;;;;;;;;20.20;33.60;;;;;;8399959;28;20008;-46
2023/04/14 08:15:45;;;;;;;;;;;20.20;33.50;;;;;;8400680;28;19913;-49
2023/04/14 08:19:46;;;;;;;;;;;20.20;33.50;;;;;;8400464;28;19923;-45
2023/04/14 08:23:46;;;;;;;;;;;20.20;33.60;;;;;;8399572;28;19916;-47
2023/04/14 08:27:47;;;;;;;;;;;20.20;33.60;;;;;;8399836;28;19923;-46
2023/04/14 08:31:47;;;;;;;;;;;20.20;33.60;;;;;;8399709;28;19928;-45
2023/04/14 08:35:48;;;;;;;;;;;20.20;33.60;;;;;;8399591;28;19975;-46
2023/04/14 08:39:48;;;;;;;;;;;20.20;33.60;;;;;;8399708;28;19969;-46
2023/04/14 08:43:49;;;;;;;;;;;20.20;33.60;;;;;;8399510;28;19923;-45
2023/04/14 08:47:50;;;;;;;;;;;20.20;33.60;;;;;;8399063;28;19948;-46
2023/04/14 08:51:52;;;;;;;;;;;20.20;33.60;;;;;;8399365;28;19927;-46
2023/04/14 08:55:53;;;;;;;;;;;20.20;33.60;;;;;;8399910;28;19921;-46
2023/04/14 08:59:55;;;;;;;;;;;20.20;33.60;;;;;;8398720;28;19935;-46
2023/04/14 09:03:56;;;;;;;;;;;20.20;33.60;;;;;;8399130;28;20370;-45
2023/04/14 09:07:56;;;;;;;;;;;20.20;33.60;;;;;;8399048;28;19938;-45
2023/04/14 09:11:57;;;;;;;;;;;20.20;33.60;;;;;;8398386;28;19964;-45
2023/04/14 09:15:58;;;;;;;;;;;20.20;33.60;;;;;;8397713;28;19942;-45
2023/04/14 09:19:59;;;;;;;;;;;20.20;33.60;;;;;;8398575;28;19924;-45
2023/04/14 09:24:00;;;;;;;;;;;20.20;33.60;;;;;;8397819;28;19923;-45
2023/04/14 09:28:01;;;;;;;;;;;20.30;33.70;;;;;;8398180;28;19920;-45
2023/04/14 09:32:02;;;;;;;;;;;20.30;33.70;;;;;;8397910;28;19932;-45
2023/04/14 09:36:03;;;;;;;;;;;20.30;33.70;;;;;;8397827;28;19923;-45
2023/04/14 09:40:04;;;;;;;;;;;20.30;33.60;;;;;;8397682;28;19916;-45
2023/04/14 09:44:06;;;;;;;;;;;20.30;33.60;;;;;;8397487;28;19920;-45
2023/04/14 09:48:07;;;;;;;;;;;20.30;33.60;;;;;;8397041;28;19917;-45
2023/04/14 09:52:08;;;;;;;;;;;20.40;33.60;;;;;;8397352;28;19974;-46
2023/04/14 09:56:09;;;;;;;;;;;20.30;33.60;;;;;;8397723;28;19997;-45
2023/04/14 10:00:21;;;;;;;;;;;20.30;33.60;;;;;;8396773;28;19916;-45
2023/04/14 10:04:23;;;;;;;;;;;20.40;33.70;;;;;;8394316;28;20365;-45
2023/04/14 10:08:32;;;;;;;;;;;20.30;33.80;;;;;;8375716;28;19912;-45
2023/04/14 10:12:33;;;;;;;;;;;20.40;33.60;;;;;;8396484;28;19932;-45
2023/04/14 10:16:33;;;;;;;;;;;20.40;33.60;;;;;;8397095;28;20025;-45
2023/04/14 10:20:34;;;;;;;;;;;20.40;33.60;;;;;;8396531;28;19962;-43
2023/04/14 10:24:35;;;;;;;;;;;20.40;33.60;;;;;;8396639;28;20297;-45
2023/04/14 10:28:37;;;;;;;;;;;20.40;33.60;;;;;;8396547;28;19913;-45
2023/04/14 10:32:39;;;;;;;;;;;20.40;33.60;;;;;;8396127;28;20010;-44
2023/04/14 10:36:40;;;;;;;;;;;20.40;33.50;;;;;;8397024;28;19920;-46
2023/04/14 10:40:47;;;;;;;;;;;20.40;33.50;;;;;;8396584;28;20374;-45
2023/04/14 10:45:07;;;;;;;;;;;20.50;33.60;;;;;;8395930;28;19912;-45
2023/04/14 10:49:10;;;;;;;;;;;20.50;33.60;;;;;;8396252;28;19939;-45
2023/04/14 10:53:11;;;;;;;;;;;20.50;33.60;;;;;;8396224;28;19920;-45
2023/04/14 10:57:13;;;;;;;;;;;20.50;33.50;;;;;;8395990;28;19923;-45
2023/04/14 11:01:20;;;;;;;;;;;20.50;33.40;;;;;;8396105;28;19916;-46
2023/04/14 11:05:21;;;;;;;;;;;20.50;33.40;;;;;;8395919;28;19920;-45
2023/04/14 11:09:22;;;;;;;;;;;20.50;33.50;;;;;;8395553;28;20027;-44
2023/04/14 11:13:23;;;;;;;;;;;20.50;33.40;;;;;;8395705;28;20030;-45
2023/04/14 11:17:28;;;;;;;;;;;20.50;33.40;;;;;;8396021;28;20374;-44
2023/04/14 11:21:30;;;;;;;;;;;20.50;33.40;;;;;;8395575;28;19939;-44
2023/04/14 11:25:30;;;;;;;;;;;20.50;33.40;;;;;;8395616;28;19916;-44
2023/04/14 11:29:31;;;;;;;;;;;20.60;33.40;;;;;;8395714;28;19935;-45
2023/04/14 11:33:33;;;;;;;;;;;20.60;33.40;;;;;;8395188;28;20410;-45
2023/04/14 11:37:34;;;;;;;;;;;20.60;33.40;;;;;;8395778;28;19912;-44
2023/04/14 11:41:35;;;;;;;;;;;20.50;33.30;;;;;;8399727;28;19917;-43
2023/04/14 11:45:40;;;;;;;;;;;20.60;33.30;;;;;;8401924;28;19916;-44
2023/04/14 11:49:40;;;;;;;;;;;20.60;33.30;;;;;;8401698;28;20331;-44
2023/04/14 11:53:42;;;;;;;;;;;20.60;33.20;;;;;;8400878;28;20011;-43
2023/04/14 11:57:45;;;;;;;;;;;20.70;33.20;;;;;;8401743;28;20435;-45
2023/04/14 12:01:47;;;;;;;;;;;20.70;33.20;;;;;;8401294;28;19984;-44
2023/04/14 12:05:48;;;;;;;;;;;20.70;33.20;;;;;;8400681;28;20259;-45
2023/04/14 12:09:49;;;;;;;;;;;20.70;33.10;;;;;;8400816;28;19916;-45
2023/04/14 12:13:51;;;;;;;;;;;20.70;33.10;;;;;;8400796;28;20366;-45
2023/04/14 12:17:52;;;;;;;;;;;20.70;33.10;;;;;;8400207;28;19935;-43
2023/04/14 12:21:53;;;;;;;;;;;20.70;33.10;;;;;;8400679;28;19916;-46
2023/04/14 12:25:53;;;;;;;;;;;20.70;33.00;;;;;;8400561;28;19920;-43
2023/04/14 12:29:53;;;;;;;;;;;20.70;33.00;;;;;;8399715;28;20017;-45
2023/04/14 12:34:02;;;;;;;;;;;20.70;33.00;;;;;;8400278;28;19925;-45
2023/04/14 12:38:11;;;;;;;;;;;20.80;33.00;;;;;;8399935;28;19923;-45
2023/04/14 12:42:11;;;;;;;;;;;20.80;33.00;;;;;;8399694;28;19991;-44
2023/04/14 12:46:21;;;;;;;;;;;20.80;33.00;;;;;;8399828;28;20377;-44
2023/04/14 12:50:23;;;;;;;;;;;20.80;33.00;;;;;;8399110;28;19916;-44
2023/04/14 12:54:24;;;;;;;;;;;20.80;33.00;;;;;;8398732;28;19924;-44
2023/04/14 12:58:27;;;;;;;;;;;20.80;33.00;;;;;;8399619;28;20258;-45
2023/04/14 13:02:28;;;;;;;;;;;20.80;33.00;;;;;;8399539;28;19967;-45
2023/04/14 13:06:30;;;;;;;;;;;20.80;33.00;;;;;;8398491;28;20367;-43
2023/04/14 13:10:30;;;;;;;;;;;20.80;33.00;;;;;;8398043;28;19923;-45
2023/04/14 13:14:31;;;;;;;;;;;20.80;32.90;;;;;;8398659;28;19925;-44
2023/04/14 13:18:31;;;;;;;;;;;20.80;32.90;;;;;;8398231;28;19913;-44
2023/04/14 13:22:31;;;;;;;;;;;20.90;32.90;;;;;;8398950;28;20092;-44
2023/04/14 13:26:35;;;;;;;;;;;20.80;32.90;;;;;;8397224;28;21287;-43
2023/04/14 13:30:38;;;;;;;;;;;20.90;32.90;;;;;;8398484;28;20365;-45
2023/04/14 13:34:39;;;;;;;;;;;20.80;32.90;;;;;;8397923;28;19920;-45
2023/04/14 13:38:39;;;;;;;;;;;20.90;32.90;;;;;;8397690;28;19997;-44
2023/04/14 13:42:40;;;;;;;;;;;20.80;32.90;;;;;;8397809;28;20417;-43
2023/04/14 13:46:40;;;;;;;;;;;20.80;32.80;;;;;;8397677;28;19987;-44
2023/04/14 13:50:41;;;;;;;;;;;20.80;32.80;;;;;;8397215;28;19913;-45
2023/04/14 13:54:41;;;;;;;;;;;20.80;32.80;;;;;;8397405;28;19928;-44
2023/04/14 13:58:41;;;;;;;;;;;20.80;32.90;;;;;;8396021;28;19917;-44
2023/04/14 14:02:42;;;;;;;;;;;20.80;32.90;;;;;;8396292;28;19931;-45
2023/04/14 14:06:42;;;;;;;;;;;20.80;32.90;;;;;;8397064;28;20386;-45
2023/04/14 14:10:43;;;;;;;;;;;20.80;32.80;;;;;;8397053;28;19923;-44
2023/04/14 14:14:43;;;;;;;;;;;20.80;32.90;;;;;;8396251;28;19925;-45
2023/04/14 14:18:45;;;;;;;;;;;20.80;32.90;;;;;;8397117;28;20004;-45
2023/04/14 14:22:45;;;;;;;;;;;20.80;32.90;;;;;;8397095;28;20384;-44
2023/04/14 14:26:46;;;;;;;;;;;20.80;32.90;;;;;;8396228;28;19923;-44
2023/04/14 14:30:47;;;;;;;;;;;20.80;32.80;;;;;;8396890;28;19940;-45
2023/04/14 14:34:48;;;;;;;;;;;20.90;32.80;;;;;;8396732;28;19925;-45
2023/04/14 14:38:48;;;;;;;;;;;20.90;32.80;;;;;;8396128;28;19912;-44
2023/04/14 14:42:49;;;;;;;;;;;20.90;32.90;;;;;;8396606;28;19913;-45
2023/04/14 14:46:51;;;;;;;;;;;20.90;32.80;;;;;;8396510;28;19924;-46
2023/04/14 14:50:51;;;;;;;;;;;20.80;32.70;;;;;;8395949;28;20294;-45
2023/04/14 14:54:52;;;;;;;;;;;20.80;32.80;;;;;;8396339;28;20024;-46
2023/04/14 14:58:53;;;;;;;;;;;20.80;32.80;;;;;;8396544;28;19920;-46
2023/04/14 15:02:53;;;;;;;;;;;20.80;32.80;;;;;;8395751;28;19928;-45
2023/04/14 15:06:53;;;;;;;;;;;20.80;32.90;;;;;;8384747;28;20374;-44
2023/04/14 15:10:54;;;;;;;;;;;20.80;33.00;;;;;;8389489;28;19947;-42
2023/04/14 15:14:54;;;;;;;;;;;20.80;32.90;;;;;;8384102;28;19931;-46
2023/04/14 15:18:55;;;;;;;;;;;20.90;33.00;;;;;;8397119;28;19920;-45
2023/04/14 15:22:55;;;;;;;;;;;21.00;32.80;;;;;;8385839;28;19924;-45
2023/04/14 15:26:56;;;;;;;;;;;21.10;32.80;;;;;;8384025;28;19953;-42
2023/04/14 15:30:56;;;;;;;;;;;21.10;32.70;;;;;;8389057;28;19925;-43
2023/04/14 15:34:57;;;;;;;;;;;21.20;32.60;;;;;;8381945;28;19924;-43
2023/04/14 15:38:57;;;;;;;;;;;21.20;32.50;;;;;;8381161;28;19953;-46
2023/04/14 15:42:58;;;;;;;;;;;21.30;32.50;;;;;;8384702;28;19932;-45
2023/04/14 15:47:00;;;;;;;;;;;21.30;32.40;;;;;;8379688;28;19920;-45
2023/04/14 15:51:02;;;;;;;;;;;21.30;32.30;;;;;;8386013;28;20381;-44
2023/04/14 15:55:03;;;;;;;;;;;21.30;32.30;;;;;;8386871;28;20362;-45
2023/04/14 15:59:03;;;;;;;;;;;21.40;32.30;;;;;;8378621;28;19925;-45
2023/04/14 16:03:03;;;;;;;;;;;21.40;32.30;;;;;;8387553;28;19947;-45
2023/04/14 16:07:04;;;;;;;;;;;21.40;32.30;;;;;;8385730;28;20003;-44
2023/04/14 16:11:05;;;;;;;;;;;21.40;32.30;;;;;;8384123;28;19924;-45
2023/04/14 16:15:06;;;;;;;;;;;21.40;32.30;;;;;;8385841;28;19932;-45
2023/04/14 16:19:07;;;;;;;;;;;21.40;32.20;;;;;;8385205;28;19925;-45
2023/04/14 16:23:07;;;;;;;;;;;21.30;32.20;;;;;;8384762;28;20019;-45
2023/04/14 16:27:07;;;;;;;;;;;21.40;32.40;;;;;;8384389;28;19916;-45
2023/04/14 16:31:08;;;;;;;;;;;21.30;32.30;;;;;;8382122;28;19978;-44
2023/04/14 16:35:08;;;;;;;;;;;21.30;32.30;;;;;;8382433;28;19974;-44
2023/04/14 16:39:09;;;;;;;;;;;21.30;32.30;;;;;;8394663;28;19920;-44
2023/04/14 16:43:09;;;;;;;;;;;21.30;32.30;;;;;;8399546;28;19923;-44
2023/04/14 16:47:10;;;;;;;;;;;21.30;32.20;;;;;;8395424;28;20258;-44
2023/04/14 16:51:10;;;;;;;;;;;21.20;32.20;;;;;;8378471;28;19951;-44
2023/04/14 16:55:11;;;;;;;;;;;21.20;32.30;;;;;;8394499;28;20366;-44
2023/04/14 16:59:11;;;;;;;;;;;21.20;32.30;;;;;;8384058;28;20428;-44
2023/04/14 17:03:12;;;;;;;;;;;21.20;32.30;;;;;;8385913;28;19931;-44
2023/04/14 17:07:12;;;;;;;;;;;21.20;32.80;;;;;;8378131;28;20003;-45
2023/04/14 17:11:14;;;;;;;;;;;21.20;32.30;;;;;;8385392;28;19920;-45
2023/04/14 17:15:14;;;;;;;;;;;21.20;32.20;;;;;;8383013;28;19920;-45
2023/04/14 17:19:15;;;;;;;;;;;21.30;32.20;;;;;;8371906;28;20698;-45
2023/04/14 17:23:17;;;;;;;;;;;21.30;32.30;;;;;;8375494;28;20270;-44
2023/04/14 17:27:17;;;;;;;;;;;21.30;32.30;;;;;;8374030;28;19971;-44
2023/04/14 17:31:19;;;;;;;;;;;21.30;32.20;;;;;;8385912;28;19923;-44
2023/04/14 17:35:20;;;;;;;;;;;21.30;32.30;;;;;;8391445;28;19929;-44
2023/04/14 17:39:25;;;;;;;;;;;21.30;32.30;;;;;;8374723;28;20386;-44
2023/04/14 17:43:26;;;;;;;;;;;21.30;32.30;;;;;;8393749;28;19916;-44
2023/04/14 17:47:26;;;;;;;;;;;21.30;32.30;;;;;;8377699;28;19924;-44
2023/04/14 17:51:27;;;;;;;;;;;21.30;32.30;;;;;;8375414;28;19952;-45
2023/04/14 17:55:28;;;;;;;;;;;21.30;32.20;;;;;;8380835;28;20044;-44
2023/04/14 17:59:28;;;;;;;;;;;21.30;32.20;;;;;;8372541;28;19920;-43
2023/04/14 18:03:29;;;;;;;;;;;21.30;32.10;;;;;;8389744;28;20000;-45
2023/04/14 18:07:30;;;;;;;;;;;21.30;32.10;;;;;;8390877;28;19969;-45
2023/04/14 18:11:31;;;;;;;;;;;21.30;32.10;;;;;;8385817;28;20332;-44
2023/04/14 18:15:31;;;;;;;;;;;21.30;32.10;;;;;;8373989;28;19923;-44
2023/04/14 18:19:34;;;;;;;;;;;21.30;32.10;;;;;;8389684;28;19916;-44
2023/04/14 18:23:35;;;;;;;;;;;21.30;32.10;;;;;;8385362;28;19948;-42
2023/04/14 18:27:35;;;;;;;;;;;21.20;32.20;;;;;;8374643;28;19924;-43
2023/04/14 18:31:36;;;;;;;;;;;21.20;32.10;;;;;;8365134;28;19925;-44
2023/04/14 18:35:37;;;;;;;;;;;21.20;32.10;;;;;;8390394;28;19917;-45
2023/04/14 18:39:37;;;;;;;;;;;21.20;32.20;;;;;;8373149;28;19916;-43
2023/04/14 18:43:38;;;;;;;;;;;21.20;32.10;;;;;;8388866;28;19917;-44
2023/04/14 18:47:38;;;;;;;;;;;21.20;32.20;;;;;;8395846;28;19913;-42
2023/04/14 18:51:39;;;;;;;;;;;21.20;32.20;;;;;;8395423;28;19925;-43
2023/04/14 18:55:39;;;;;;;;;;;21.10;32.20;;;;;;8396305;28;19917;-44
2023/04/14 18:59:40;;;;;;;;;;;21.10;32.20;;;;;;8395963;28;19924;-43
2023/04/14 19:03:41;;;;;;;;;;;21.10;32.30;;;;;;8395883;28;19921;-43
2023/04/14 19:07:41;;;;;;;;;;;21.10;32.30;;;;;;8395056;28;19999;-42
2023/04/14 19:11:43;;;;;;;;;;;21.10;32.30;;;;;;8395473;28;19951;-44
2023/04/14 19:15:43;;;;;;;;;;;21.10;32.30;;;;;;8395964;28;19924;-44
2023/04/14 19:19:44;;;;;;;;;;;21.10;32.30;;;;;;8395932;28;20392;-45
2023/04/14 19:23:45;;;;;;;;;;;21.10;32.30;;;;;;8395279;28;19913;-44
2023/04/14 19:27:45;;;;;;;;;;;21.10;32.30;;;;;;8395973;28;19916;-45
2023/04/14 19:31:46;;;;;;;;;;;21.10;32.30;;;;;;8395495;28;19924;-43
2023/04/14 19:35:47;;;;;;;;;;;21.10;32.30;;;;;;8395299;28;19912;-42
2023/04/14 19:39:48;;;;;;;;;;;21.10;32.30;;;;;;8395639;28;19912;-44
2023/04/14 19:43:50;;;;;;;;;;;21.00;32.30;;;;;;8395352;28;19916;-45
2023/04/14 19:47:51;;;;;;;;;;;21.10;32.30;;;;;;8394896;28;19963;-43
2023/04/14 19:51:53;;;;;;;;;;;21.00;32.30;;;;;;8395508;28;19993;-44
2023/04/14 19:55:55;;;;;;;;;;;21.00;32.30;;;;;;8395560;28;19920;-42
2023/04/14 19:59:56;;;;;;;;;;;21.00;32.30;;;;;;8395499;28;19917;-43
2023/04/14 20:03:56;;;;;;;;;;;21.00;32.30;;;;;;8401101;28;19928;-42
2023/04/14 20:07:57;;;;;;;;;;;21.00;32.30;;;;;;8397692;28;19959;-44
2023/04/14 20:11:59;;;;;;;;;;;21.00;32.30;;;;;;8397888;28;20298;-44
2023/04/14 20:16:00;;;;;;;;;;;21.00;32.30;;;;;;8400837;28;19919;-43
2023/04/14 20:20:01;;;;;;;;;;;21.00;32.30;;;;;;8400786;28;19916;-45
2023/04/14 20:24:01;;;;;;;;;;;21.00;32.30;;;;;;8400094;28;19924;-44
2023/04/14 20:28:02;;;;;;;;;;;21.00;32.30;;;;;;8384828;28;19958;-45
2023/04/14 20:32:03;;;;;;;;;;;21.00;32.30;;;;;;8374519;28;19931;-46
2023/04/14 20:36:05;;;;;;;;;;;21.00;32.30;;;;;;8390946;28;20294;-44
2023/04/14 20:40:06;;;;;;;;;;;21.00;32.20;;;;;;8376201;28;20328;-44
2023/04/14 20:44:07;;;;;;;;;;;21.00;32.20;;;;;;8389568;28;20007;-44
2023/04/14 20:48:08;;;;;;;;;;;21.00;32.20;;;;;;8399334;28;19916;-44
2023/04/14 20:52:08;;;;;;;;;;;21.00;32.20;;;;;;8399523;28;19960;-44
2023/04/14 20:56:08;;;;;;;;;;;21.00;32.20;;;;;;8399810;28;19916;-47
2023/04/14 21:00:10;;;;;;;;;;;21.00;32.10;;;;;;8399010;28;19917;-45
2023/04/14 21:04:11;;;;;;;;;;;21.00;32.10;;;;;;8399253;28;19974;-44
2023/04/14 21:08:12;;;;;;;;;;;21.00;32.10;;;;;;8399621;28;20258;-44
2023/04/14 21:12:12;;;;;;;;;;;21.00;32.10;;;;;;8397487;28;19931;-43
2023/04/14 21:16:14;;;;;;;;;;;21.00;32.10;;;;;;8398909;28;19917;-43
2023/04/14 21:20:15;;;;;;;;;;;21.00;32.10;;;;;;8398334;28;20270;-44
2023/04/14 21:24:16;;;;;;;;;;;20.90;32.10;;;;;;8398196;28;19948;-43
2023/04/14 21:28:17;;;;;;;;;;;20.90;32.10;;;;;;8398614;28;19916;-44
2023/04/14 21:32:17;;;;;;;;;;;20.90;32.10;;;;;;8398110;28;19920;-43
2023/04/14 21:36:18;;;;;;;;;;;20.90;32.20;;;;;;8397892;28;19916;-44
2023/04/14 21:40:19;;;;;;;;;;;20.90;32.30;;;;;;8398345;28;19916;-43
2023/04/14 21:44:20;;;;;;;;;;;20.80;32.20;;;;;;8398133;28;20270;-43
2023/04/14 21:48:22;;;;;;;;;;;20.90;32.30;;;;;;8397285;28;19917;-44
2023/04/14 21:52:23;;;;;;;;;;;20.80;32.30;;;;;;8397708;28;20308;-43
2023/04/14 21:56:24;;;;;;;;;;;20.80;32.30;;;;;;8397780;28;19920;-43
2023/04/14 22:00:25;;;;;;;;;;;20.80;32.30;;;;;;8396892;28;19948;-43
2023/04/14 22:04:26;;;;;;;;;;;20.80;32.30;;;;;;8390751;28;19920;-44
2023/04/14 22:08:26;;;;;;;;;;;20.70;32.30;;;;;;8396623;28;19912;-44
2023/04/14 22:12:27;;;;;;;;;;;20.70;32.30;;;;;;8396522;28;19925;-43
2023/04/14 22:16:27;;;;;;;;;;;20.60;32.30;;;;;;8397068;28;19912;-43
2023/04/14 22:20:28;;;;;;;;;;;20.60;32.30;;;;;;8396765;28;20436;-44
2023/04/14 22:24:29;;;;;;;;;;;20.60;32.40;;;;;;8396020;28;19916;-43
2023/04/14 22:28:29;;;;;;;;;;;20.60;32.40;;;;;;8396922;28;19913;-43
2023/04/14 22:32:31;;;;;;;;;;;20.60;32.40;;;;;;8396405;28;20352;-43
2023/04/14 22:36:31;;;;;;;;;;;20.50;32.40;;;;;;8396376;28;19924;-43
2023/04/14 22:40:32;;;;;;;;;;;20.50;32.50;;;;;;8396644;28;19924;-43
2023/04/14 22:44:32;;;;;;;;;;;20.50;32.50;;;;;;8396361;28;19913;-43
2023/04/14 22:48:33;;;;;;;;;;;20.50;32.50;;;;;;8396000;28;20409;-43
2023/04/14 22:52:33;;;;;;;;;;;20.40;32.50;;;;;;8396380;28;19931;-43
2023/04/14 22:56:35;;;;;;;;;;;20.40;32.50;;;;;;8396446;28;19962;-43
2023/04/14 23:00:35;;;;;;;;;;;20.40;32.40;;;;;;8396157;28;19916;-44
2023/04/14 23:04:36;;;;;;;;;;;20.40;32.40;;;;;;8395963;28;20011;-42
2023/04/14 23:08:36;;;;;;;;;;;20.40;32.40;;;;;;8395742;28;19917;-42
2023/04/14 23:12:40;;;;;;;;;;;20.30;32.40;;;;;;8396148;28;19932;-44
2023/04/14 23:16:41;;;;;;;;;;;20.30;32.40;;;;;;8396042;28;19916;-43
2023/04/14 23:20:42;;;;;;;;;;;20.30;32.40;;;;;;8395472;28;19940;-42